M I D A S
Marine Information and Data Acquisition System
Tripno 959 of the Zeeleeuw from 2005-09-21 06:41:11 to 2005-09-21 13:26:59
Back to CruiseResearch ActivitiesStationsMapUnderway DataData graphs

EquipmentUnitsComment
TimeDGPSUTC
LatitudeDGPSDM.mWGS84
LongitudeDGPSDM.mWGS84
HeadingGyrodeg 
SOGDGPSknotsSpeed over ground
COGDGPSdegCourse over ground
DepthEcho soundermeters200 kHz
Missing or incorrect values are displayed as -999
Navigation data collected by the RV Zeeleeuw from 2005-09-21 06:38:15 to 2005-09-21 13:37:02
                                                                                    Next 1000 lines
Time Latitude Longitude Heading SOG COG Depth
2005-09-21 06:38:25 51°13.604 2°56.09 116.6 1.4 296 6.3
2005-09-21 06:38:30 51°13.605 2°56.085 116.9 1.4 296 6.6
2005-09-21 06:38:35 51°13.607 2°56.08 117.1 1.4 296 -999
2005-09-21 06:38:40 51°13.608 2°56.074 117.1 2.6 298 -999
2005-09-21 06:38:45 51°13.611 2°56.068 116.9 2.6 298 -999
2005-09-21 06:38:51 51°13.613 2°56.061 117.2 2.6 298 -999
2005-09-21 06:38:56 51°13.615 2°56.054 117.2 3.4 297 -999
2005-09-21 06:39:01 51°13.617 2°56.047 116.8 3.4 297 -999
2005-09-21 06:39:05 51°13.619 2°56.04 116 3.7 294 -999
2005-09-21 06:39:10 51°13.621 2°56.033 115.3 3.7 294 -999
2005-09-21 06:39:15 51°13.623 2°56.025 114.6 3.8 293 -999
2005-09-21 06:39:20 51°13.625 2°56.018 114.1 3.9 293 -999
2005-09-21 06:39:25 51°13.627 2°56.009 113.8 3.9 292 -999
2005-09-21 06:39:30 51°13.63 2°56 113.7 4 292 -999
2005-09-21 06:39:35 51°13.632 2°55.992 113.8 4 292 -999
2005-09-21 06:39:41 51°13.634 2°55.983 114.3 4 292 -999
2005-09-21 06:39:45 51°13.636 2°55.975 115.1 4.1 292 -999
2005-09-21 06:39:50 51°13.638 2°55.966 116.1 4.1 292 -999
2005-09-21 06:39:55 51°13.641 2°55.957 116.8 4.3 294 -999
2005-09-21 06:40:01 51°13.644 2°55.948 117.9 4.4 294 -999
2005-09-21 06:40:05 51°13.646 2°55.94 118.9 4.4 294 -999
2005-09-21 06:40:11 51°13.649 2°55.93 119.7 4.5 297 -999
2005-09-21 06:40:15 51°13.652 2°55.921 120.5 4.7 298 -999
2005-09-21 06:40:20 51°13.655 2°55.912 121.1 4.7 298 -999
2005-09-21 06:40:25 51°13.659 2°55.903 121.3 4.7 299 -999
2005-09-21 06:40:31 51°13.662 2°55.893 121.5 4.7 299 -999
2005-09-21 06:40:35 51°13.665 2°55.886 121.5 4.7 300 -999
2005-09-21 06:40:40 51°13.668 2°55.877 121.5 4.6 300 -999
2005-09-21 06:40:45 51°13.671 2°55.868 121.2 4.5 299 -999
2005-09-21 06:40:51 51°13.674 2°55.859 120.8 4.5 299 -999
2005-09-21 06:40:55 51°13.677 2°55.851 120.3 4.5 299 -999
2005-09-21 06:41:00 51°13.68 2°55.843 119.7 4.3 299 -999
2005-09-21 06:41:05 51°13.683 2°55.835 119 4.3 299 -999
2005-09-21 06:41:11 51°13.686 2°55.825 117.6 4.3 299 8.5
2005-09-21 06:41:15 51°13.688 2°55.818 116.7 4.3 299 -999
2005-09-21 06:41:21 51°13.691 2°55.808 115.4 4.2 296 -999
2005-09-21 06:41:25 51°13.692 2°55.802 113.2 4.2 296 -999
2005-09-21 06:41:31 51°13.695 2°55.792 111.7 4.1 293 -999
2005-09-21 06:41:35 51°13.697 2°55.785 109.3 3.9 292 4.8
2005-09-21 06:41:41 51°13.699 2°55.777 107.8 3.7 290 -999
2005-09-21 06:41:45 51°13.7 2°55.77 106.2 3.7 290 -999
2005-09-21 06:41:49 51°13.701 2°55.765 104.5 3.4 287 -999
2005-09-21 06:41:55 51°13.703 2°55.756 102.6 3.4 287 13.7
2005-09-21 06:41:59 51°13.704 2°55.751 101.2 3.1 286 13.7
2005-09-21 06:42:05 51°13.705 2°55.746 99.7 2.9 287 13.1
2005-09-21 06:42:09 51°13.705 2°55.743 96.8 2.9 287 12.7
2005-09-21 06:42:15 51°13.706 2°55.741 93.6 2.9 287 12.5
2005-09-21 06:42:20 51°13.707 2°55.74 88.5 2.9 287 12.4
2005-09-21 06:42:25 51°13.708 2°55.741 82 0.7 355 12.3
2005-09-21 06:42:29 51°13.709 2°55.743 75 0.7 355 12.3
2005-09-21 06:42:35 51°13.711 2°55.745 67.2 1.5 31 12.5
2005-09-21 06:42:40 51°13.713 2°55.747 59.8 1.5 39 12.5
2005-09-21 06:42:45 51°13.716 2°55.749 50.8 2.2 29 12.7
2005-09-21 06:42:50 51°13.719 2°55.752 43.3 2.2 29 12.8
2005-09-21 06:42:55 51°13.721 2°55.752 37.7 1.8 15 12.5
2005-09-21 06:43:00 51°13.721 2°55.753 33.1 1.1 19 12.2
2005-09-21 06:43:05 51°13.721 2°55.752 28.8 1.1 19 12.2
2005-09-21 06:43:10 51°13.721 2°55.751 25.4 1.1 19 12.1
2005-09-21 06:43:15 51°13.719 2°55.749 21.8 0.9 218 12.3
2005-09-21 06:43:19 51°13.718 2°55.749 19.5 1 208 12.4
2005-09-21 06:43:25 51°13.717 2°55.747 18.1 1 208 12.2
2005-09-21 06:43:29 51°13.716 2°55.746 16.1 1.1 207 4.8
2005-09-21 06:43:35 51°13.715 2°55.745 14.4 0.9 208 -999
2005-09-21 06:43:41 51°13.714 2°55.744 12.9 0.9 208 -999
2005-09-21 06:43:45 51°13.714 2°55.743 11.1 0.5 238 -999
2005-09-21 06:43:51 51°13.714 2°55.743 9.4 0.3 293 -999
2005-09-21 06:43:56 51°13.715 2°55.742 6.5 0.3 293 -999
2005-09-21 06:44:01 51°13.717 2°55.741 3 0.9 335 -999
2005-09-21 06:44:05 51°13.719 2°55.74 359.1 0.9 335 -999
2005-09-21 06:44:11 51°13.721 2°55.738 355.4 1.5 340 -999
2005-09-21 06:44:16 51°13.724 2°55.736 350 1.5 340 -999
2005-09-21 06:44:20 51°13.726 2°55.734 345.9 2.4 336 -999
2005-09-21 06:44:25 51°13.73 2°55.731 343.1 2.4 336 -999
2005-09-21 06:44:30 51°13.733 2°55.729 341.5 2.9 334 5
2005-09-21 06:44:35 51°13.738 2°55.725 340.1 2.9 334 9.4
2005-09-21 06:44:40 51°13.741 2°55.722 339.4 2.9 334 8.8
2005-09-21 06:44:45 51°13.746 2°55.717 338.8 3.7 332 9.2
2005-09-21 06:44:49 51°13.751 2°55.713 338.2 4 330 9.3
2005-09-21 06:44:56 51°13.758 2°55.707 337.6 4 330 9
2005-09-21 06:45:00 51°13.762 2°55.702 337 4 330 8.5
2005-09-21 06:45:05 51°13.768 2°55.696 336 4.8 328 8.4
2005-09-21 06:45:10 51°13.774 2°55.691 335.3 5 328 8.3
2005-09-21 06:45:16 51°13.781 2°55.684 334.7 5 328 8.3
2005-09-21 06:45:20 51°13.787 2°55.678 334.6 5.3 329 8.5
2005-09-21 06:45:25 51°13.794 2°55.672 334.7 4.4 329 8.7
2005-09-21 06:45:31 51°13.801 2°55.665 334.9 4.4 329 8.9
2005-09-21 06:45:35 51°13.808 2°55.659 334.9 4.4 329 9.1
2005-09-21 06:45:40 51°13.815 2°55.653 334.9 4.4 329 9.2
2005-09-21 06:45:45 51°13.822 2°55.646 335.1 6 331 9.4
2005-09-21 06:45:50 51°13.83 2°55.639 335.2 6 331 9.7
2005-09-21 06:45:55 51°13.838 2°55.632 335 6.3 330 9.8
2005-09-21 06:46:00 51°13.845 2°55.626 335.1 6.3 331 9.7
2005-09-21 06:46:05 51°13.853 2°55.619 335.9 6.4 332 9.9
2005-09-21 06:46:10 51°13.86 2°55.613 337.2 6.5 333 9.5
2005-09-21 06:46:16 51°13.87 2°55.606 338.2 6.6 334 9.4
2005-09-21 06:46:20 51°13.878 2°55.6 338.2 6.6 334 9.6
2005-09-21 06:46:25 51°13.886 2°55.593 338.2 6.6 334 9.6
2005-09-21 06:46:30 51°13.895 2°55.587 338.2 6.6 334 9.3
2005-09-21 06:46:36 51°13.904 2°55.58 338.2 6.8 334 9.2
2005-09-21 06:46:40 51°13.911 2°55.574 338.3 6.8 334 9.3
2005-09-21 06:46:45 51°13.92 2°55.567 338.3 6.8 334 9.5
2005-09-21 06:46:50 51°13.928 2°55.56 338.5 6.8 334 9.7
2005-09-21 06:46:55 51°13.937 2°55.553 338.5 6.8 334 9.4
2005-09-21 06:47:00 51°13.945 2°55.547 338.5 6.9 334 9.6
2005-09-21 06:47:05 51°13.954 2°55.54 338.2 6.9 333 9.6
2005-09-21 06:47:11 51°13.964 2°55.532 338.1 6.9 333 9.4
2005-09-21 06:47:15 51°13.971 2°55.526 338 6.9 333 9.5
2005-09-21 06:47:20 51°13.979 2°55.52 337.8 6.9 333 9.5
2005-09-21 06:47:25 51°13.988 2°55.512 337.6 6.9 333 9.8
2005-09-21 06:47:29 51°13.995 2°55.507 337.5 6.9 333 9.9
2005-09-21 06:47:36 51°14.006 2°55.498 337.3 6.9 333 10
2005-09-21 06:47:40 51°14.014 2°55.491 337.2 7 333 10
2005-09-21 06:47:45 51°14.023 2°55.484 337.4 7 333 10
2005-09-21 06:47:51 51°14.032 2°55.477 338 7 333 9.8
2005-09-21 06:47:55 51°14.04 2°55.471 338.8 6.9 335 9.7
2005-09-21 06:48:00 51°14.049 2°55.465 339.8 6.9 335 9.8
2005-09-21 06:48:05 51°14.058 2°55.459 341 6.9 337 9.9
2005-09-21 06:48:09 51°14.065 2°55.454 341.9 6.9 337 10
2005-09-21 06:48:16 51°14.076 2°55.447 342.4 6.9 338 9.6
2005-09-21 06:48:20 51°14.085 2°55.442 342.6 6.9 338 9.7
2005-09-21 06:48:25 51°14.093 2°55.436 342.9 6.9 338 9.9
2005-09-21 06:48:29 51°14.101 2°55.431 343.1 6.9 338 10
2005-09-21 06:48:35 51°14.111 2°55.424 343.2 6.9 338 10
2005-09-21 06:48:40 51°14.119 2°55.419 343.2 6.9 338 10
2005-09-21 06:48:45 51°14.129 2°55.413 343.2 6.9 338 10
2005-09-21 06:48:50 51°14.137 2°55.407 343.3 7 338 10
2005-09-21 06:48:55 51°14.147 2°55.4 342.5 6.9 336 10
2005-09-21 06:49:00 51°14.154 2°55.395 341.5 6.9 336 10.1
2005-09-21 06:49:05 51°14.164 2°55.387 339.9 6.9 334 10
2005-09-21 06:49:09 51°14.171 2°55.382 338.4 6.9 333 10
2005-09-21 06:49:15 51°14.181 2°55.373 337.5 7 332 10.1
2005-09-21 06:49:20 51°14.189 2°55.366 336.9 6.9 331 10
2005-09-21 06:49:25 51°14.197 2°55.358 336.1 6.9 330 10.1
2005-09-21 06:49:31 51°14.207 2°55.349 334.6 6.9 330 10.1
2005-09-21 06:49:35 51°14.214 2°55.341 332.7 7 326 10.1
2005-09-21 06:49:40 51°14.22 2°55.333 330.8 7 326 10.1
2005-09-21 06:49:45 51°14.229 2°55.322 328.8 7 323 10.1
2005-09-21 06:49:50 51°14.237 2°55.313 327.7 7 322 10
2005-09-21 06:49:55 51°14.245 2°55.302 326.8 7.2 322 10
2005-09-21 06:50:00 51°14.252 2°55.292 326.3 7.2 322 10
2005-09-21 06:50:05 51°14.262 2°55.28 326 7.8 320 9.9
2005-09-21 06:50:10 51°14.27 2°55.267 325 8.3 318 10
2005-09-21 06:50:15 51°14.278 2°55.253 322.9 8.5 316 10
2005-09-21 06:50:20 51°14.286 2°55.24 320.4 8.7 314 10
2005-09-21 06:50:25 51°14.295 2°55.223 317.9 9 311 10
2005-09-21 06:50:29 51°14.301 2°55.211 316.2 9.1 311 10
2005-09-21 06:50:36 51°14.312 2°55.19 315.1 9.3 310 10.1
2005-09-21 06:50:40 51°14.319 2°55.177 314.5 9.4 309 10.1
2005-09-21 06:50:45 51°14.328 2°55.158 314 9.4 309 10.1
2005-09-21 06:50:50 51°14.335 2°55.143 313.1 9.4 309 10.1
2005-09-21 06:50:55 51°14.344 2°55.125 312.6 9.7 307 10.2
2005-09-21 06:51:00 51°14.352 2°55.11 312.6 9.7 307 10.1
2005-09-21 06:51:05 51°14.361 2°55.091 313.6 9.8 308 10.2
2005-09-21 06:51:10 51°14.368 2°55.075 313.6 9.8 307 10
2005-09-21 06:51:15 51°14.377 2°55.056 312.8 9.9 307 10.3
2005-09-21 06:51:20 51°14.386 2°55.038 312.7 10 307 10.4
2005-09-21 06:51:25 51°14.394 2°55.021 312.7 10 307 10
2005-09-21 06:51:31 51°14.403 2°55 312.7 10.1 306 10.1
2005-09-21 06:51:35 51°14.41 2°54.984 312.6 10.1 304 9.8
2005-09-21 06:51:40 51°14.416 2°54.966 311.6 10.1 304 10
2005-09-21 06:51:45 51°14.424 2°54.945 310.3 10.3 301 9.9
2005-09-21 06:51:50 51°14.432 2°54.924 310.3 10.5 301 9.9
2005-09-21 06:51:55 51°14.441 2°54.905 312 10.9 304 9.9
2005-09-21 06:52:00 51°14.45 2°54.887 315.7 10.9 304 9.9
2005-09-21 06:52:05 51°14.462 2°54.867 320.3 10.9 304 9.8
2005-09-21 06:52:09 51°14.471 2°54.853 324.8 11.7 315 9.7
2005-09-21 06:52:15 51°14.487 2°54.831 328 12.1 319 9.6
2005-09-21 06:52:20 51°14.498 2°54.816 330.9 12.2 320 9.4
2005-09-21 06:52:25 51°14.513 2°54.798 332.4 12.4 322 9.4
2005-09-21 06:52:31 51°14.529 2°54.78 334.1 12.6 324 9.3
2005-09-21 06:52:36 51°14.543 2°54.763 335.3 12.6 324 9.3
2005-09-21 06:52:40 51°14.555 2°54.75 336.3 12.7 325 9.2
2005-09-21 06:52:45 51°14.571 2°54.733 336.9 12.8 326 9.2
2005-09-21 06:52:50 51°14.585 2°54.719 337.5 12.8 326 9.1
2005-09-21 06:52:56 51°14.603 2°54.7 338.1 12.9 327 9
2005-09-21 06:53:00 51°14.615 2°54.688 338.3 12.9 327 9
2005-09-21 06:53:05 51°14.631 2°54.671 338.4 13 327 8.9
2005-09-21 06:53:10 51°14.647 2°54.655 338.4 13 327 8.9
2005-09-21 06:53:16 51°14.663 2°54.637 338.2 13 327 8.9
2005-09-21 06:53:20 51°14.677 2°54.623 338.1 13.1 327 8.9
2005-09-21 06:53:26 51°14.693 2°54.605 338.1 13.1 327 8.8
2005-09-21 06:53:31 51°14.708 2°54.588 337.5 13.1 325 8.9
2005-09-21 06:53:35 51°14.721 2°54.572 335.8 13.2 324 8.8
2005-09-21 06:53:40 51°14.734 2°54.555 333.3 13.2 322 8.8
2005-09-21 06:53:45 51°14.749 2°54.534 331.6 13.3 320 8.7
2005-09-21 06:53:50 51°14.763 2°54.514 330.4 13.3 319 8.6
2005-09-21 06:53:55 51°14.776 2°54.494 328.8 13.3 318 8.6
2005-09-21 06:54:00 51°14.789 2°54.476 328 13.3 318 8.6
2005-09-21 06:54:05 51°14.803 2°54.454 327.4 13.3 317 8.6
2005-09-21 06:54:11 51°14.818 2°54.432 327.3 13.3 317 8.5
2005-09-21 06:54:15 51°14.831 2°54.414 327.1 13.3 317 8.5
2005-09-21 06:54:20 51°14.843 2°54.397 327.3 13.3 317 8.6
2005-09-21 06:54:25 51°14.859 2°54.376 328.4 13.3 319 8.4
2005-09-21 06:54:29 51°14.87 2°54.361 329.7 13.3 320 8.3
2005-09-21 06:54:36 51°14.889 2°54.337 330.3 13.3 320 8.3
2005-09-21 06:54:40 51°14.901 2°54.32 331 13.2 321 8.3
2005-09-21 06:54:45 51°14.916 2°54.303 331.6 13.2 321 8.3
2005-09-21 06:54:51 51°14.932 2°54.283 332 13.2 321 8.1
2005-09-21 06:54:55 51°14.945 2°54.267 332.3 13.3 322 8.1
2005-09-21 06:55:00 51°14.959 2°54.249 332.4 13.2 323 8.1
2005-09-21 06:55:05 51°14.973 2°54.231 332.4 13.1 321 7.9
2005-09-21 06:55:10 51°14.988 2°54.213 332.1 13 321 7.9
2005-09-21 06:55:16 51°15.003 2°54.193 331.6 13.1 321 7.9
2005-09-21 06:55:20 51°15.017 2°54.177 331.6 13.1 321 7.8
2005-09-21 06:55:25 51°15.031 2°54.159 331.5 13.1 321 7.8
2005-09-21 06:55:30 51°15.045 2°54.141 331.7 13.1 321 7.8
2005-09-21 06:55:36 51°15.06 2°54.122 332.2 13.1 321 7.9
2005-09-21 06:55:40 51°15.072 2°54.108 332.4 13.1 323 7.9
2005-09-21 06:55:45 51°15.088 2°54.088 332.9 13.1 323 8
2005-09-21 06:55:50 51°15.103 2°54.072 333.3 13.2 324 8.1
2005-09-21 06:55:56 51°15.119 2°54.053 333.8 13.2 324 8
2005-09-21 06:56:00 51°15.131 2°54.039 333.9 13.2 324 8.1
2005-09-21 06:56:05 51°15.147 2°54.02 333.8 13.2 323 8.2
2005-09-21 06:56:10 51°15.162 2°54.002 333.3 13.2 323 8.2
2005-09-21 06:56:15 51°15.176 2°53.983 332.4 13.3 321 8.3
2005-09-21 06:56:20 51°15.189 2°53.966 331.3 13.3 319 8.3
2005-09-21 06:56:26 51°15.206 2°53.943 329.5 13.4 320 8.4
2005-09-21 06:56:29 51°15.215 2°53.929 329.2 13.3 320 8.5
2005-09-21 06:56:36 51°15.234 2°53.905 329.2 13.3 320 8.6
2005-09-21 06:56:40 51°15.246 2°53.891 329.9 13.4 321 8.6
2005-09-21 06:56:45 51°15.263 2°53.872 331.6 13.4 324 8.7
2005-09-21 06:56:51 51°15.28 2°53.853 333.2 13.4 324 8.8
2005-09-21 06:56:55 51°15.294 2°53.838 334.5 13.4 326 8.8
2005-09-21 06:57:00 51°15.307 2°53.823 335.5 13.4 326 8.9
2005-09-21 06:57:05 51°15.325 2°53.805 336.2 13.4 327 9
2005-09-21 06:57:11 51°15.342 2°53.788 336.6 13.4 327 9
2005-09-21 06:57:15 51°15.356 2°53.773 336.8 13.4 327 9.1
2005-09-21 06:57:20 51°15.37 2°53.759 336.8 13.4 327 9.2
2005-09-21 06:57:25 51°15.387 2°53.741 336.1 13.4 327 9.2
2005-09-21 06:57:31 51°15.404 2°53.722 335.8 13.4 327 9.3
2005-09-21 06:57:36 51°15.419 2°53.705 335.4 13.4 327 9.4
2005-09-21 06:57:41 51°15.434 2°53.688 335 13.4 325 9.4
2005-09-21 06:57:45 51°15.448 2°53.673 334.2 13.4 324 9.6
2005-09-21 06:57:50 51°15.462 2°53.657 334 13.5 325 9.6
2005-09-21 06:57:56 51°15.48 2°53.636 333.9 13.5 325 9.7
2005-09-21 06:58:00 51°15.492 2°53.622 333.6 13.4 324 9.7
2005-09-21 06:58:05 51°15.509 2°53.603 333.5 13.4 324 9.7
2005-09-21 06:58:09 51°15.521 2°53.589 333.7 13.4 324 9.8
2005-09-21 06:58:15 51°15.539 2°53.568 334 13.4 324 9.8
2005-09-21 06:58:20 51°15.552 2°53.553 334.4 13.4 324 9.9
2005-09-21 06:58:25 51°15.569 2°53.534 334.5 13.3 324 9.9
2005-09-21 06:58:30 51°15.582 2°53.517 334.4 13.4 323 10
2005-09-21 06:58:35 51°15.598 2°53.498 334 13.4 323 10.1
2005-09-21 06:58:40 51°15.612 2°53.482 333.8 13.4 323 10
2005-09-21 06:58:45 51°15.628 2°53.462 333.8 13.4 323 10.1
2005-09-21 06:58:51 51°15.644 2°53.443 333.8 13.3 323 10.1
2005-09-21 06:58:55 51°15.658 2°53.428 334.2 13.3 324 10.2
2005-09-21 06:59:00 51°15.671 2°53.412 334.6 13.2 324 10.2
2005-09-21 06:59:05 51°15.688 2°53.395 335.4 13.3 326 10.3
2005-09-21 06:59:09 51°15.7 2°53.383 337.1 13.2 327 10.3
2005-09-21 06:59:16 51°15.721 2°53.362 338.5 13.2 327 10.3
2005-09-21 06:59:20 51°15.733 2°53.351 339.5 13.1 329 10.4
2005-09-21 06:59:25 51°15.751 2°53.335 340.4 13 330 10.5
2005-09-21 06:59:31 51°15.768 2°53.319 340.9 13 330 10.5
2005-09-21 06:59:36 51°15.784 2°53.305 341.3 13 330 10.5
2005-09-21 06:59:41 51°15.8 2°53.291 341.5 13.1 331 10.6
2005-09-21 06:59:45 51°15.815 2°53.278 341.6 13.1 330 10.7
2005-09-21 06:59:49 51°15.827 2°53.266 341.6 13.1 330 10.7
2005-09-21 06:59:55 51°15.846 2°53.249 341.4 13.1 330 10.8
2005-09-21 07:00:00 51°15.86 2°53.235 341.1 13.2 330 10.8
2005-09-21 07:00:05 51°15.877 2°53.219 340.5 13.2 329 10.8
2005-09-21 07:00:09 51°15.889 2°53.207 340.3 13.2 329 10.9
2005-09-21 07:00:15 51°15.908 2°53.188 339.9 13.1 329 10.9
2005-09-21 07:00:20 51°15.922 2°53.175 339.7 13.2 329 10.9
2005-09-21 07:00:25 51°15.939 2°53.158 339.6 13.2 328 11
2005-09-21 07:00:29 51°15.951 2°53.146 339.5 13.2 328 11
2005-09-21 07:00:35 51°15.97 2°53.128 339.5 13.2 329 11.1
2005-09-21 07:00:40 51°15.984 2°53.115 339.6 13.2 329 11.1
2005-09-21 07:00:45 51°16.002 2°53.099 339.8 13.2 329 11.1
2005-09-21 07:00:49 51°16.014 2°53.087 340.1 13.2 329 11.1
2005-09-21 07:00:55 51°16.033 2°53.071 340.9 13.1 330 11.2
2005-09-21 07:01:00 51°16.048 2°53.059 342.5 13.1 333 11.2
2005-09-21 07:01:06 51°16.067 2°53.044 343.8 13.1 333 11.2
2005-09-21 07:01:09 51°16.079 2°53.036 345 13.1 333 11.2
2005-09-21 07:01:15 51°16.098 2°53.022 345.7 13 335 11.2
2005-09-21 07:01:20 51°16.113 2°53.011 346.2 13 336 11.2
2005-09-21 07:01:25 51°16.131 2°52.998 346.2 13 336 11.3
2005-09-21 07:01:29 51°16.144 2°52.988 345.9 13 335 11.3
2005-09-21 07:01:35 51°16.164 2°52.973 345.5 13 335 11.3
2005-09-21 07:01:40 51°16.179 2°52.962 345.3 13 335 11.3
2005-09-21 07:01:45 51°16.196 2°52.949 345 13 335 11.3
2005-09-21 07:01:50 51°16.211 2°52.938 344.8 13.1 334 11.3
2005-09-21 07:01:56 51°16.231 2°52.923 344.6 13.1 334 11.4
2005-09-21 07:02:00 51°16.246 2°52.912 344.5 13.1 334 11.4
2005-09-21 07:02:05 51°16.262 2°52.9 344.5 13.1 334 11.4
2005-09-21 07:02:09 51°16.275 2°52.89 344.6 13.2 335 11.4
2005-09-21 07:02:16 51°16.297 2°52.874 344.8 13.2 335 11.4
2005-09-21 07:02:20 51°16.31 2°52.864 345.1 13.3 335 11.4
2005-09-21 07:02:25 51°16.329 2°52.851 345.5 13.2 336 11.3
2005-09-21 07:02:30 51°16.344 2°52.84 345.7 13.3 336 11.3
2005-09-21 07:02:35 51°16.363 2°52.827 346.3 13.4 337 11.4
2005-09-21 07:02:40 51°16.378 2°52.817 347 13.4 337 11.3
2005-09-21 07:02:45 51°16.397 2°52.805 347.6 13.3 338 11.3
2005-09-21 07:02:49 51°16.411 2°52.796 347.9 13.3 338 11.2
2005-09-21 07:02:55 51°16.432 2°52.783 348 13.4 338 11.2
2005-09-21 07:03:00 51°16.449 2°52.772 348 13.4 338 11.1
2005-09-21 07:03:05 51°16.466 2°52.761 348 13.4 338 11.1
2005-09-21 07:03:09 51°16.48 2°52.752 347.9 13.4 338 11
2005-09-21 07:03:15 51°16.501 2°52.738 347.7 13.3 338 11
2005-09-21 07:03:20 51°16.518 2°52.727 347.5 13.4 338 10.9
2005-09-21 07:03:25 51°16.535 2°52.716 346.9 13.5 338 10.8
2005-09-21 07:03:29 51°16.549 2°52.706 346.9 13.5 337 10.7
2005-09-21 07:03:36 51°16.571 2°52.692 346.5 13.5 337 10.7
2005-09-21 07:03:40 51°16.585 2°52.683 347 13.4 338 10.6
2005-09-21 07:03:45 51°16.604 2°52.671 347.7 13.4 339 10.5
2005-09-21 07:03:51 51°16.623 2°52.66 348.3 13.4 339 10.3
2005-09-21 07:03:56 51°16.64 2°52.65 349 13.4 339 10.2
2005-09-21 07:04:00 51°16.656 2°52.641 349.5 13.3 340 10.1
2005-09-21 07:04:05 51°16.673 2°52.631 349.9 13.2 340 10
2005-09-21 07:04:10 51°16.689 2°52.622 349.9 13.3 340 9.9
2005-09-21 07:04:16 51°16.71 2°52.609 349.8 13.3 340 9.6
2005-09-21 07:04:20 51°16.724 2°52.601 349.6 13.3 340 9.4
2005-09-21 07:04:25 51°16.742 2°52.59 349.3 13.3 340 9
2005-09-21 07:04:30 51°16.759 2°52.58 349.2 13.3 340 9.1
2005-09-21 07:04:36 51°16.778 2°52.569 349.4 13 340 9.1
2005-09-21 07:04:40 51°16.792 2°52.561 349.8 13.1 341 9.3
2005-09-21 07:04:45 51°16.811 2°52.551 350.5 13.1 341 9.1
2005-09-21 07:04:49 51°16.825 2°52.543 350.8 13.2 341 9.1
2005-09-21 07:04:56 51°16.848 2°52.531 350.8 13.3 342 9
2005-09-21 07:05:00 51°16.862 2°52.523 351.1 13.3 342 8.9
2005-09-21 07:05:05 51°16.881 2°52.513 351.1 13.2 341 9.2
2005-09-21 07:05:10 51°16.896 2°52.504 350.6 13.3 341 9.2
2005-09-21 07:05:15 51°16.916 2°52.493 350.3 13.3 341 9.1
2005-09-21 07:05:20 51°16.931 2°52.485 350 13.3 341 9
2005-09-21 07:05:25 51°16.95 2°52.474 350 13.4 341 8.7
2005-09-21 07:05:31 51°16.969 2°52.463 349.8 13.3 341 8.8
2005-09-21 07:05:36 51°16.987 2°52.454 350 13.2 341 8.8
2005-09-21 07:05:40 51°17.001 2°52.446 350.4 13.2 341 8.8
2005-09-21 07:05:45 51°17.02 2°52.437 350.9 13.3 342 8.8
2005-09-21 07:05:49 51°17.034 2°52.429 351.3 13.3 342 8.8
2005-09-21 07:05:56 51°17.057 2°52.418 351.3 13.3 342 8.9
2005-09-21 07:06:00 51°17.071 2°52.41 351.3 13.3 342 9
2005-09-21 07:06:05 51°17.09 2°52.399 350.9 13.3 341 9
2005-09-21 07:06:10 51°17.106 2°52.39 350.1 13.3 341 9.1
2005-09-21 07:06:15 51°17.125 2°52.379 349.2 13.4 340 9.1
2005-09-21 07:06:20 51°17.14 2°52.369 348.4 13.4 339 9.2
2005-09-21 07:06:25 51°17.159 2°52.357 347.7 13.4 339 9.2
2005-09-21 07:06:30 51°17.177 2°52.346 347.1 13.4 339 9.3
2005-09-21 07:06:36 51°17.196 2°52.334 346.9 13.4 339 9.4
2005-09-21 07:06:40 51°17.21 2°52.326 347.2 13.4 339 9.5
2005-09-21 07:06:45 51°17.229 2°52.315 347.9 13.5 341 9.6
2005-09-21 07:06:49 51°17.243 2°52.307 349.1 13.4 341 9.6
2005-09-21 07:06:56 51°17.266 2°52.295 349.8 13.4 341 9.5
2005-09-21 07:07:00 51°17.282 2°52.287 350.4 13.3 341 9.7
2005-09-21 07:07:05 51°17.3 2°52.277 350.5 13.3 341 9.6
2005-09-21 07:07:10 51°17.317 2°52.267 350.6 13.4 341 9.5
2005-09-21 07:07:15 51°17.334 2°52.257 350.4 13.3 340 9.6
2005-09-21 07:07:20 51°17.352 2°52.247 349.8 13.3 340 9.6
2005-09-21 07:07:25 51°17.369 2°52.237 349.2 13.3 340 9.6
2005-09-21 07:07:29 51°17.383 2°52.228 348.6 13.4 339 9.5
2005-09-21 07:07:36 51°17.406 2°52.214 348.4 13.4 339 9.6
2005-09-21 07:07:40 51°17.42 2°52.206 348.2 13.4 339 9.6
2005-09-21 07:07:45 51°17.438 2°52.194 348 13.3 339 9.5
2005-09-21 07:07:51 51°17.457 2°52.182 348.2 13.3 339 9.7
2005-09-21 07:07:56 51°17.473 2°52.169 348.3 13.2 338 9.5
2005-09-21 07:08:00 51°17.486 2°52.156 345.4 13.2 338 9.6
2005-09-21 07:08:05 51°17.502 2°52.137 340.1 13.3 327 9.6
2005-09-21 07:08:11 51°17.517 2°52.114 334.2 13.3 318 9.6
2005-09-21 07:08:15 51°17.527 2°52.094 328 13.2 313 9.6
2005-09-21 07:08:20 51°17.537 2°52.072 322 13.2 313 9.5
2005-09-21 07:08:25 51°17.547 2°52.044 315.7 13.3 304 9.6
2005-09-21 07:08:29 51°17.553 2°52.023 309.8 13.4 296 9.7
2005-09-21 07:08:36 51°17.564 2°51.988 305.6 13.5 296 9.7
2005-09-21 07:08:40 51°17.57 2°51.963 302.7 13.5 296 9.7
2005-09-21 07:08:45 51°17.577 2°51.934 300.4 13.6 291 9.7
2005-09-21 07:08:51 51°17.584 2°51.903 298.6 13.6 291 9.6
2005-09-21 07:08:55 51°17.589 2°51.877 297.3 13.6 291 9.5
2005-09-21 07:09:00 51°17.595 2°51.851 296.1 13.6 291 9.6
2005-09-21 07:09:05 51°17.601 2°51.819 295.6 13.8 288 9.5
2005-09-21 07:09:09 51°17.606 2°51.796 295.1 13.8 288 9.3
2005-09-21 07:09:15 51°17.614 2°51.761 295.2 13.8 289 9.3
2005-09-21 07:09:20 51°17.619 2°51.735 296.1 13.8 290 9.3
2005-09-21 07:09:25 51°17.627 2°51.704 296.9 13.8 291 9.2
2005-09-21 07:09:31 51°17.635 2°51.673 298.4 13.8 292 9.1
2005-09-21 07:09:36 51°17.643 2°51.645 299.4 13.8 292 9.1
2005-09-21 07:09:41 51°17.65 2°51.617 300.2 13.8 292 9.1
2005-09-21 07:09:45 51°17.657 2°51.592 300.7 13.8 293 9.1
2005-09-21 07:09:49 51°17.663 2°51.569 301 13.8 293 9.1
2005-09-21 07:09:56 51°17.673 2°51.533 301.2 13.8 294 9
2005-09-21 07:10:00 51°17.679 2°51.51 301.3 13.8 293 9.1
2005-09-21 07:10:05 51°17.688 2°51.479 301.3 13.9 293 8.9
2005-09-21 07:10:10 51°17.694 2°51.453 301.1 13.9 293 8.9
2005-09-21 07:10:15 51°17.703 2°51.422 300.9 14 293 8.9
2005-09-21 07:10:20 51°17.709 2°51.397 300.7 14 293 9
2005-09-21 07:10:25 51°17.718 2°51.366 301.1 13.9 294 9.1
2005-09-21 07:10:31 51°17.727 2°51.335 302 14 295 9.2
2005-09-21 07:10:36 51°17.736 2°51.307 302.8 14 295 9.2
2005-09-21 07:10:40 51°17.743 2°51.285 303.3 14 296 9.2
2005-09-21 07:10:45 51°17.752 2°51.254 304.1 14 296 9.3
2005-09-21 07:10:50 51°17.76 2°51.229 304.6 14 297 9.2
2005-09-21 07:10:56 51°17.771 2°51.196 304.9 14.1 298 9.3
2005-09-21 07:11:00 51°17.778 2°51.174 305.2 14.1 297 9.5
2005-09-21 07:11:05 51°17.788 2°51.143 305.1 14.1 296 9.6
2005-09-21 07:11:09 51°17.795 2°51.121 304.5 14.1 296 9.6
2005-09-21 07:11:16 51°17.805 2°51.084 304.1 14.1 296 9.9
2005-09-21 07:11:20 51°17.812 2°51.061 303.4 14.2 295 9.9
2005-09-21 07:11:25 51°17.82 2°51.03 302.8 14.2 294 10
2005-09-21 07:11:29 51°17.827 2°51.006 301.9 14.2 294 10.3
2005-09-21 07:11:35 51°17.837 2°50.972 301.7 14.2 294 10.3
2005-09-21 07:11:40 51°17.844 2°50.946 301.6 14.3 294 10.6
2005-09-21 07:11:45 51°17.853 2°50.914 301.6 14.3 294 10.7
2005-09-21 07:11:49 51°17.859 2°50.891 301.9 14.3 295 10.7
2005-09-21 07:11:55 51°17.869 2°50.856 302.6 14.4 295 10.9
2005-09-21 07:12:00 51°17.877 2°50.831 303.3 14.3 295 11
2005-09-21 07:12:05 51°17.886 2°50.8 303.4 14.2 295 11.2
2005-09-21 07:12:09 51°17.893 2°50.778 303.7 14.2 295 11.2
2005-09-21 07:12:15 51°17.903 2°50.744 303.9 14.2 296 11.3
2005-09-21 07:12:20 51°17.911 2°50.718 304 14.2 296 11.5
2005-09-21 07:12:25 51°17.92 2°50.687 304 14.2 296 11.6
2005-09-21 07:12:31 51°17.93 2°50.656 304 14.2 296 11.6
2005-09-21 07:12:35 51°17.937 2°50.63 303.9 14.2 296 11.7
2005-09-21 07:12:40 51°17.944 2°50.604 303.6 14.2 296 11.7
2005-09-21 07:12:45 51°17.954 2°50.573 303.3 14.2 295 11.8
2005-09-21 07:12:49 51°17.961 2°50.55 303.1 14.2 295 11.9
2005-09-21 07:12:55 51°17.97 2°50.516 303.2 14.2 295 12
2005-09-21 07:13:00 51°17.978 2°50.491 303.3 14.2 295 12.1
2005-09-21 07:13:05 51°17.987 2°50.46 303.7 14.2 295 12.1
2005-09-21 07:13:11 51°17.996 2°50.429 303.7 14.2 295 12.1
2005-09-21 07:13:16 51°18.004 2°50.4 303.4 14.2 295 12.3
2005-09-21 07:13:20 51°18.011 2°50.377 303.3 14.2 295 12.3
2005-09-21 07:13:25 51°18.02 2°50.346 303.3 14.2 295 12.5
2005-09-21 07:13:30 51°18.028 2°50.32 303.3 14.2 295 12.5
2005-09-21 07:13:36 51°18.038 2°50.286 303.3 14.2 295 12.7
2005-09-21 07:13:40 51°18.046 2°50.26 303.5 14.2 295 12.7
2005-09-21 07:13:45 51°18.054 2°50.232 303.5 14.2 295 12.8
2005-09-21 07:13:50 51°18.062 2°50.204 303.5 14.2 295 12.9
2005-09-21 07:13:55 51°18.071 2°50.175 303.4 14.2 295 12.9
2005-09-21 07:14:00 51°18.079 2°50.146 303.1 14.3 295 12.9
2005-09-21 07:14:05 51°18.087 2°50.118 302.8 14.3 295 13
2005-09-21 07:14:10 51°18.096 2°50.089 302.7 14.2 295 13
2005-09-21 07:14:15 51°18.104 2°50.061 302.7 14.2 294 13
2005-09-21 07:14:20 51°18.112 2°50.032 302.7 14.3 295 13.1
2005-09-21 07:14:25 51°18.12 2°50.004 302.7 14.2 295 13.1
2005-09-21 07:14:31 51°18.13 2°49.972 302.7 14.2 295 13.1
2005-09-21 07:14:36 51°18.138 2°49.944 303 14.2 295 13.1
2005-09-21 07:14:40 51°18.145 2°49.921 303.1 14.2 295 13.1
2005-09-21 07:14:46 51°18.155 2°49.887 303.1 14.2 295 13.1
2005-09-21 07:14:49 51°18.161 2°49.867 303.1 14.2 296 13
2005-09-21 07:14:56 51°18.172 2°49.83 303.1 14.3 296 13
2005-09-21 07:15:00 51°18.179 2°49.807 303.1 14.2 296 13.1
2005-09-21 07:15:05 51°18.188 2°49.776 303.2 14.2 295 12.9
2005-09-21 07:15:09 51°18.195 2°49.754 303.3 14.2 295 12.9
2005-09-21 07:15:15 51°18.205 2°49.719 303.3 14.2 296 12.7
2005-09-21 07:15:20 51°18.213 2°49.694 303.3 14.2 295 12.7
2005-09-21 07:15:25 51°18.222 2°49.662 303.1 14.2 295 12.8
2005-09-21 07:15:31 51°18.231 2°49.631 302.8 14.2 295 12.6
2005-09-21 07:15:36 51°18.239 2°49.602 302.4 14.2 295 12.4
2005-09-21 07:15:40 51°18.246 2°49.576 302.2 14.2 293 12.2
2005-09-21 07:15:45 51°18.254 2°49.548 301.8 14.2 293 12.2
2005-09-21 07:15:49 51°18.26 2°49.524 301.6 14.2 294 12.2
2005-09-21 07:15:56 51°18.27 2°49.487 302 14.2 295 11.8
2005-09-21 07:16:00 51°18.278 2°49.462 302.6 14.2 294 11.5
2005-09-21 07:16:05 51°18.286 2°49.434 303.4 14.2 294 10.7
2005-09-21 07:16:10 51°18.294 2°49.408 303.7 14.1 295 10.6
2005-09-21 07:16:15 51°18.303 2°49.378 303.8 14.1 296 10.8
2005-09-21 07:16:20 51°18.312 2°49.349 304.1 14.1 295 10.8
2005-09-21 07:16:25 51°18.32 2°49.321 304.1 14.2 296 10.8
2005-09-21 07:16:31 51°18.329 2°49.29 303.7 14.2 295 10.5
2005-09-21 07:16:36 51°18.338 2°49.261 303.2 14.3 295 10.5
2005-09-21 07:16:40 51°18.344 2°49.238 302.8 14.2 294 10
2005-09-21 07:16:45 51°18.353 2°49.207 302.6 14.2 294 10.1
2005-09-21 07:16:50 51°18.361 2°49.181 302.6 14.2 295 9.6
2005-09-21 07:16:55 51°18.37 2°49.15 302.9 14.2 295 9.5
2005-09-21 07:17:00 51°18.378 2°49.125 303.3 14.2 296 9.4
2005-09-21 07:17:06 51°18.388 2°49.09 303.8 14.2 296 9.3
2005-09-21 07:17:11 51°18.396 2°49.062 304 14.2 296 9.3
2005-09-21 07:17:16 51°18.405 2°49.034 304.1 14.2 296 9.5
2005-09-21 07:17:20 51°18.413 2°49.009 304.2 14.2 296 9.6
2005-09-21 07:17:25 51°18.422 2°48.98 304.3 14.3 296 9.7
2005-09-21 07:17:29 51°18.429 2°48.957 304.6 14.4 297 9.5
2005-09-21 07:17:36 51°18.44 2°48.92 304.6 14.4 296 9.8
2005-09-21 07:17:40 51°18.448 2°48.894 304.3 14.4 296 9.7
2005-09-21 07:17:45 51°18.456 2°48.866 304.1 14.4 295 9.4
2005-09-21 07:17:51 51°18.466 2°48.834 303.8 14.4 295 9
2005-09-21 07:17:55 51°18.473 2°48.808 303.4 14.4 295 9.3
2005-09-21 07:18:00 51°18.482 2°48.78 303.2 14.4 295 9.5
2005-09-21 07:18:05 51°18.49 2°48.751 302.8 14.4 295 9.8
2005-09-21 07:18:10 51°18.499 2°48.721 302.8 14.5 295 10
2005-09-21 07:18:15 51°18.507 2°48.692 302.8 14.6 295 10.1
2005-09-21 07:18:21 51°18.517 2°48.66 302.8 14.6 295 10.1
2005-09-21 07:18:25 51°18.525 2°48.634 303.1 14.6 296 9.8
2005-09-21 07:18:31 51°18.534 2°48.603 303.3 14.6 296 9.7
2005-09-21 07:18:36 51°18.543 2°48.574 303.6 14.4 296 9.7
2005-09-21 07:18:41 51°18.552 2°48.545 304.1 14.4 296 9.8
2005-09-21 07:18:45 51°18.559 2°48.519 303.6 14.4 295 9.7
2005-09-21 07:18:50 51°18.567 2°48.492 303.2 14.5 294 10.7
2005-09-21 07:18:56 51°18.576 2°48.457 302.4 14.5 294 10.9
2005-09-21 07:19:00 51°18.582 2°48.433 301.3 14.7 294 11.2
2005-09-21 07:19:05 51°18.591 2°48.4 301.1 14.7 292 11.3
2005-09-21 07:19:09 51°18.597 2°48.377 300.4 14.6 293 11.2
2005-09-21 07:19:15 51°18.607 2°48.341 300.3 14.6 293 11.5
2005-09-21 07:19:20 51°18.614 2°48.311 300.2 14.6 293 11.7
2005-09-21 07:19:25 51°18.622 2°48.281 300.5 14.6 293 12.1
2005-09-21 07:19:29 51°18.629 2°48.258 300.7 14.6 293 12.4
2005-09-21 07:19:36 51°18.639 2°48.219 300.8 14.6 293 12.7
2005-09-21 07:19:40 51°18.645 2°48.195 300.8 14.6 293 12.8
2005-09-21 07:19:45 51°18.654 2°48.163 300.7 14.5 293 12.9
2005-09-21 07:19:50 51°18.661 2°48.136 300.7 14.5 293 13
2005-09-21 07:19:55 51°18.669 2°48.104 300.7 14.5 293 13.2
2005-09-21 07:20:00 51°18.676 2°48.077 300.5 14.5 293 13.3
2005-09-21 07:20:05 51°18.684 2°48.045 300.4 14.5 293 13.3
2005-09-21 07:20:09 51°18.691 2°48.021 300.6 14.5 293 13.5
2005-09-21 07:20:16 51°18.701 2°47.983 300.9 14.4 293 13.6
2005-09-21 07:20:20 51°18.707 2°47.96 301.2 14.4 293 13.9
2005-09-21 07:20:26 51°18.717 2°47.925 301.5 14.4 293 14.1
2005-09-21 07:20:31 51°18.725 2°47.896 301.5 14.4 293 14.2
2005-09-21 07:20:36 51°18.733 2°47.866 301.4 14.4 293 14.4
2005-09-21 07:20:40 51°18.739 2°47.84 300.9 14.4 293 14.6
2005-09-21 07:20:45 51°18.746 2°47.811 300.4 14.3 292 14.7
2005-09-21 07:20:50 51°18.753 2°47.784 300.3 14.3 292 15
2005-09-21 07:20:55 51°18.762 2°47.752 300.9 14.3 293 15.1
2005-09-21 07:21:00 51°18.769 2°47.726 301.4 14.2 293 15.3
2005-09-21 07:21:05 51°18.778 2°47.695 301.8 14.3 294 15.5
2005-09-21 07:21:09 51°18.784 2°47.672 302.4 14.2 294 15.5
2005-09-21 07:21:16 51°18.795 2°47.635 302.7 14.1 294 15.7
2005-09-21 07:21:20 51°18.801 2°47.612 302.9 14.2 294 15.8
2005-09-21 07:21:26 51°18.811 2°47.577 302.9 14.2 294 16
2005-09-21 07:21:29 51°18.817 2°47.557 302.4 14.2 293 15.8
2005-09-21 07:21:35 51°18.825 2°47.522 301.9 14.2 293 16.3
2005-09-21 07:21:40 51°18.833 2°47.493 301.6 14.2 292 16.4
2005-09-21 07:21:46 51°18.842 2°47.461 301.4 14.2 292 17.1
2005-09-21 07:21:50 51°18.849 2°47.435 301.4 14.2 293 17.5
2005-09-21 07:21:55 51°18.857 2°47.406 301.7 14.2 294 17.7
2005-09-21 07:22:00 51°18.866 2°47.377 302.2 14.3 294 17.8
2005-09-21 07:22:05 51°18.873 2°47.349 302.5 14.3 294 17.8
2005-09-21 07:22:11 51°18.882 2°47.317 302.4 14.3 294 17.9
2005-09-21 07:22:16 51°18.89 2°47.288 301.9 14.3 293 18
2005-09-21 07:22:20 51°18.896 2°47.265 301.8 14.3 293 18.1
2005-09-21 07:22:25 51°18.905 2°47.233 302 14.3 294 18.2
2005-09-21 07:22:31 51°18.913 2°47.201 302.1 14.3 294 18.3
2005-09-21 07:22:35 51°18.921 2°47.175 302.1 14.3 294 18.4
2005-09-21 07:22:40 51°18.928 2°47.148 301.8 14.3 294 18.7
2005-09-21 07:22:45 51°18.936 2°47.116 301.8 14.4 294 18.9
2005-09-21 07:22:50 51°18.944 2°47.087 301.8 14.4 294 19
2005-09-21 07:22:56 51°18.953 2°47.055 301.8 14.4 294 19.2
2005-09-21 07:23:00 51°18.961 2°47.029 302.1 14.3 294 19.3
2005-09-21 07:23:05 51°18.969 2°47 302.3 14.4 295 19.4
2005-09-21 07:23:10 51°18.976 2°46.974 302.5 14.4 294 19.5
2005-09-21 07:23:15 51°18.985 2°46.942 302.5 14.3 294 19.6
2005-09-21 07:23:20 51°18.992 2°46.916 302.4 14.4 294 19.9
2005-09-21 07:23:25 51°19.001 2°46.884 302.1 14.4 294 19.9
2005-09-21 07:23:31 51°19.009 2°46.852 301.8 14.4 294 20
2005-09-21 07:23:35 51°19.016 2°46.826 301.7 14.4 294 20
2005-09-21 07:23:40 51°19.023 2°46.799 301.6 14.4 293 20.1
2005-09-21 07:23:45 51°19.032 2°46.767 301.6 14.4 293 20.1
2005-09-21 07:23:51 51°19.041 2°46.735 301.7 14.4 293 20.1
2005-09-21 07:23:56 51°19.049 2°46.706 301.9 14.4 293 20.2
2005-09-21 07:24:00 51°19.056 2°46.683 302.1 14.4 294 20.2
2005-09-21 07:24:05 51°19.065 2°46.65 301.9 14.4 294 20.2
2005-09-21 07:24:11 51°19.073 2°46.618 301.8 14.4 294 20.2
2005-09-21 07:24:16 51°19.081 2°46.59 301.8 14.3 293 20.3
2005-09-21 07:24:20 51°19.088 2°46.566 302.1 14.3 293 20.3
2005-09-21 07:24:25 51°19.097 2°46.534 302.2 14.4 294 20.3
2005-09-21 07:24:31 51°19.106 2°46.502 302.3 14.4 294 20.3
2005-09-21 07:24:35 51°19.113 2°46.476 302.4 14.4 295 19.8
2005-09-21 07:24:40 51°19.122 2°46.447 302.5 14.4 295 20
2005-09-21 07:24:45 51°19.13 2°46.419 302.6 14.4 295 20.3
2005-09-21 07:24:51 51°19.139 2°46.387 302.6 14.4 295 20.4
2005-09-21 07:24:56 51°19.148 2°46.358 302.3 14.4 295 20.4
2005-09-21 07:25:01 51°19.156 2°46.329 302.3 14.4 295 20.4
2005-09-21 07:25:05 51°19.164 2°46.303 302.3 14.4 295 20.3
2005-09-21 07:25:10 51°19.171 2°46.277 302.6 14.4 296 20.2
2005-09-21 07:25:15 51°19.18 2°46.245 302.7 14.3 295 20
2005-09-21 07:25:20 51°19.188 2°46.22 302.8 14.3 295 19.7
2005-09-21 07:25:25 51°19.197 2°46.188 302.8 14.3 295 18.7
2005-09-21 07:25:30 51°19.205 2°46.162 302.4 14.3 294 19.3
2005-09-21 07:25:36 51°19.214 2°46.128 302.1 14.3 294 19.1
2005-09-21 07:25:40 51°19.221 2°46.105 302 14.2 295 19.2
2005-09-21 07:25:46 51°19.231 2°46.07 302.3 14.2 295 18.9
2005-09-21 07:25:51 51°19.239 2°46.042 302.4 14.2 295 18.3
2005-09-21 07:25:56 51°19.247 2°46.013 302.5 14.2 295 18.1
2005-09-21 07:26:00 51°19.253 2°45.99 302 14.2 294 18
2005-09-21 07:26:06 51°19.263 2°45.955 301.8 14.2 294 17.1
2005-09-21 07:26:09 51°19.268 2°45.935 301.8 14.3 294 16.6
2005-09-21 07:26:15 51°19.278 2°45.901 301.9 14.2 294 17.2
2005-09-21 07:26:20 51°19.286 2°45.875 302.2 14.3 294 16.9
2005-09-21 07:26:25 51°19.294 2°45.843 302.2 14.3 294 16.2
2005-09-21 07:26:29 51°19.301 2°45.82 301.8 14.3 293 14.4
2005-09-21 07:26:36 51°19.311 2°45.782 301.7 14.3 294 16
2005-09-21 07:26:40 51°19.318 2°45.759 301.7 14.3 294 15.6
2005-09-21 07:26:45 51°19.327 2°45.727 301.9 14.3 294 14.4
2005-09-21 07:26:51 51°19.336 2°45.695 302.3 14.3 294 13.7
2005-09-21 07:26:56 51°19.344 2°45.666 302.5 14.3 294 12.9
2005-09-21 07:27:00 51°19.352 2°45.64 302.6 14.3 295 14
2005-09-21 07:27:05 51°19.36 2°45.612 302.8 14.3 295 13.4
2005-09-21 07:27:10 51°19.368 2°45.586 302.9 14.4 295 11.7
2005-09-21 07:27:15 51°19.377 2°45.554 303.2 14.4 295 13.2
2005-09-21 07:27:20 51°19.385 2°45.528 303.2 14.4 295 12.8
2005-09-21 07:27:25 51°19.395 2°45.497 303.4 14.4 296 10.5
2005-09-21 07:27:31 51°19.404 2°45.465 303.8 14.4 296 12.2
2005-09-21 07:27:36 51°19.413 2°45.437 303.7 14.4 296 12
2005-09-21 07:27:40 51°19.421 2°45.413 303.7 14.5 296 10.9
2005-09-21 07:27:45 51°19.431 2°45.382 303.9 14.5 296 11.1
2005-09-21 07:27:50 51°19.438 2°45.356 304 14.5 296 10.1
2005-09-21 07:27:55 51°19.448 2°45.325 303.9 14.4 297 9.3
2005-09-21 07:28:00 51°19.456 2°45.299 304 14.4 296 10.6
2005-09-21 07:28:05 51°19.466 2°45.267 303.7 14.5 297 9.8
2005-09-21 07:28:11 51°19.476 2°45.236 303.9 14.5 297 9.6
2005-09-21 07:28:16 51°19.485 2°45.207 304 14.5 297 11.5
2005-09-21 07:28:20 51°19.493 2°45.183 304.1 14.8 297 12.9
2005-09-21 07:28:25 51°19.503 2°45.151 304 14.9 297 14
2005-09-21 07:28:29 51°19.51 2°45.127 303.6 15 297 15.2
2005-09-21 07:28:35 51°19.521 2°45.091 303.4 15 297 13.8
2005-09-21 07:28:40 51°19.529 2°45.064 303.4 15 297 14.7
2005-09-21 07:28:45 51°19.539 2°45.032 303.3 14.8 296 16.7
2005-09-21 07:28:49 51°19.546 2°45.009 303.3 14.8 296 17.1
2005-09-21 07:28:56 51°19.558 2°44.97 303.4 14.8 296 18.3
2005-09-21 07:29:00 51°19.565 2°44.947 303.6 14.7 296 19.5
2005-09-21 07:29:05 51°19.575 2°44.915 303.6 14.7 296 19.8
2005-09-21 07:29:09 51°19.582 2°44.892 303.6 14.7 296 20.1
2005-09-21 07:29:16 51°19.594 2°44.854 303.6 14.6 296 20.3
2005-09-21 07:29:20 51°19.601 2°44.831 303.5 14.6 296 20.5
2005-09-21 07:29:25 51°19.611 2°44.799 303.5 14.5 296 20.6
2005-09-21 07:29:29 51°19.618 2°44.776 303.3 14.5 296 20.7
2005-09-21 07:29:36 51°19.629 2°44.738 303.3 14.5 296 20.8
2005-09-21 07:29:40 51°19.636 2°44.715 302.9 14.5 295 20.9
2005-09-21 07:29:45 51°19.645 2°44.683 302.7 14.5 295 20.9
2005-09-21 07:29:50 51°19.653 2°44.657 302.3 14.4 295 21
2005-09-21 07:29:55 51°19.662 2°44.625 302 14.4 294 21
2005-09-21 07:30:00 51°19.669 2°44.599 301.8 14.4 294 21.2
2005-09-21 07:30:05 51°19.678 2°44.567 301.4 14.5 294 21.2
2005-09-21 07:30:09 51°19.685 2°44.544 301.5 14.4 295 21.3
2005-09-21 07:30:16 51°19.696 2°44.506 301.7 14.4 295 21.5
2005-09-21 07:30:20 51°19.704 2°44.48 301.9 14.4 295 21.6
2005-09-21 07:30:25 51°19.712 2°44.451 302.2 14.4 295 21.8
2005-09-21 07:30:29 51°19.718 2°44.428 302 14.4 294 21.8
2005-09-21 07:30:36 51°19.729 2°44.39 301.8 14.4 295 22.2
2005-09-21 07:30:40 51°19.737 2°44.364 302.1 14.4 295 22.1
2005-09-21 07:30:46 51°19.747 2°44.332 302.4 14.4 295 22.3
2005-09-21 07:30:50 51°19.755 2°44.306 302.6 14.5 296 22.6
2005-09-21 07:30:55 51°19.763 2°44.278 302.5 14.4 295 22.5
2005-09-21 07:31:00 51°19.77 2°44.252 302.4 14.4 295 22.6
2005-09-21 07:31:05 51°19.78 2°44.22 302.1 14.3 295 22.7
2005-09-21 07:31:11 51°19.789 2°44.189 302.1 14.3 295 22.1
2005-09-21 07:31:16 51°19.797 2°44.16 302.3 14.3 295 22.2
2005-09-21 07:31:20 51°19.804 2°44.137 302.3 14.4 295 22.6
2005-09-21 07:31:25 51°19.813 2°44.105 302 14.4 294 22.9
2005-09-21 07:31:29 51°19.819 2°44.082 301.8 14.3 294 22.7
2005-09-21 07:31:36 51°19.83 2°44.044 301.4 14.3 294 22.9
2005-09-21 07:31:40 51°19.837 2°44.018 301.7 14.3 294 22.8
2005-09-21 07:31:45 51°19.845 2°43.989 301.8 14.4 294 22.3
2005-09-21 07:31:49 51°19.852 2°43.966 301.9 14.3 294 22.6
2005-09-21 07:31:56 51°19.862 2°43.928 301.9 14.3 294 21.9
2005-09-21 07:32:00 51°19.869 2°43.905 301.9 14.4 294 22.8
2005-09-21 07:32:06 51°19.879 2°43.87 301.8 14.4 294 23.1
2005-09-21 07:32:09 51°19.884 2°43.85 301.8 14.3 294 23.6
2005-09-21 07:32:16 51°19.895 2°43.812 301.9 14.4 295 24
2005-09-21 07:32:20 51°19.902 2°43.789 302 14.4 295 24.1
2005-09-21 07:32:25 51°19.911 2°43.757 302.3 14.4 295 24.4
2005-09-21 07:32:31 51°19.92 2°43.726 302.6 14.4 295 24.8
2005-09-21 07:32:35 51°19.928 2°43.7 302.6 14.4 295 24.9
2005-09-21 07:32:40 51°19.935 2°43.674 302.4 14.4 295 25.1
2005-09-21 07:32:45 51°19.945 2°43.642 302.4 14.4 295 25.3
2005-09-21 07:32:50 51°19.953 2°43.613 302.4 14.4 295 25.3
2005-09-21 07:32:56 51°19.962 2°43.581 302.3 14.4 295 25.4
2005-09-21 07:33:01 51°19.97 2°43.552 302 14.4 295 25.6
2005-09-21 07:33:05 51°19.978 2°43.526 302 14.4 295 25.7
2005-09-21 07:33:09 51°19.984 2°43.503 302.2 14.4 295 25.6
2005-09-21 07:33:15 51°19.995 2°43.468 302.4 14.4 295 25.7
2005-09-21 07:33:20 51°20.002 2°43.442 302.4 14.5 295 25.6
2005-09-21 07:33:25 51°20.011 2°43.411 302.4 14.5 295 25.6
2005-09-21 07:33:31 51°20.021 2°43.379 302.4 14.4 295 25.4
2005-09-21 07:33:36 51°20.029 2°43.35 302.4 14.4 295 25.2
2005-09-21 07:33:40 51°20.035 2°43.327 302.6 14.4 295 25.2
2005-09-21 07:33:45 51°20.045 2°43.295 302.7 14.4 295 25
2005-09-21 07:33:50 51°20.053 2°43.269 302.7 14.4 295 25.2
2005-09-21 07:33:55 51°20.062 2°43.238 302.6 14.4 295 25.3
2005-09-21 07:34:00 51°20.069 2°43.212 302.3 14.4 295 25.4
2005-09-21 07:34:05 51°20.078 2°43.18 302.3 14.3 295 25.4
2005-09-21 07:34:09 51°20.085 2°43.157 302.5 14.4 295 25.5
2005-09-21 07:34:16 51°20.096 2°43.12 302.6 14.3 296 25.4
2005-09-21 07:34:20 51°20.103 2°43.097 302.7 14.3 294 25.3
2005-09-21 07:34:25 51°20.112 2°43.065 302.4 14.3 295 25.3
2005-09-21 07:34:29 51°20.118 2°43.042 302 14.3 294 25.1
2005-09-21 07:34:35 51°20.128 2°43.007 301.3 14.3 293 25.1
2005-09-21 07:34:40 51°20.135 2°42.981 300.9 14.4 293 25
2005-09-21 07:34:45 51°20.144 2°42.949 300.4 14.4 293 24.9
2005-09-21 07:34:49 51°20.15 2°42.925 300.3 14.4 293 24.6
2005-09-21 07:34:55 51°20.159 2°42.89 299.9 14.4 293 23.9
2005-09-21 07:35:00 51°20.166 2°42.864 299.8 14.4 292 23.8
2005-09-21 07:35:05 51°20.175 2°42.831 299.5 14.4 292 24.1
2005-09-21 07:35:09 51°20.181 2°42.807 299.5 14.4 292 24.1
2005-09-21 07:35:15 51°20.191 2°42.772 299.7 14.5 293 24.1
2005-09-21 07:35:20 51°20.198 2°42.746 299.9 14.5 293 23.9
2005-09-21 07:35:25 51°20.206 2°42.713 300.1 14.4 293 23.6
2005-09-21 07:35:31 51°20.216 2°42.678 300.2 14.4 293 23.5
2005-09-21 07:35:35 51°20.223 2°42.654 300.1 14.4 293 23.1
2005-09-21 07:35:40 51°20.229 2°42.628 300.1 14.4 293 22.5
2005-09-21 07:35:45 51°20.238 2°42.596 299.7 14.4 293 22.3
2005-09-21 07:35:51 51°20.247 2°42.563 299.7 14.4 293 20.6
2005-09-21 07:35:56 51°20.255 2°42.534 299.7 14.4 293 22.1
2005-09-21 07:36:00 51°20.262 2°42.508 299.8 14.4 293 22.3
2005-09-21 07:36:05 51°20.27 2°42.479 300.2 14.5 294 22.2
2005-09-21 07:36:11 51°20.279 2°42.447 300.5 14.5 294 21.5
2005-09-21 07:36:16 51°20.287 2°42.417 300.6 14.4 294 20.3
2005-09-21 07:36:20 51°20.294 2°42.394 300.4 14.4 294 20.9
2005-09-21 07:36:25 51°20.303 2°42.362 300.3 14.5 294 21.1
2005-09-21 07:36:31 51°20.312 2°42.33 300.3 14.5 294 20.7
2005-09-21 07:36:35 51°20.319 2°42.303 300.5 14.5 294 19.9
2005-09-21 07:36:40 51°20.327 2°42.274 300.5 14.5 294 18.6
2005-09-21 07:36:46 51°20.336 2°42.241 300.3 14.5 294 19.4
2005-09-21 07:36:50 51°20.343 2°42.215 300.3 14.5 294 18.5
2005-09-21 07:36:55 51°20.352 2°42.186 300.3 14.5 294 15.8
2005-09-21 07:37:01 51°20.361 2°42.154 300.6 14.5 294 15.8
2005-09-21 07:37:05 51°20.368 2°42.127 300.4 14.5 294 17.8
2005-09-21 07:37:10 51°20.376 2°42.101 300.2 14.5 295 18.7
2005-09-21 07:37:16 51°20.385 2°42.065 300.7 14.5 295 16.9
2005-09-21 07:37:21 51°20.394 2°42.036 300.6 14.5 295 16.8
2005-09-21 07:37:25 51°20.401 2°42.01 300.7 14.6 294 17.7
2005-09-21 07:37:29 51°20.408 2°41.987 300.4 14.6 295 17.9
2005-09-21 07:37:35 51°20.418 2°41.951 300.6 14.6 295 17.1
2005-09-21 07:37:40 51°20.426 2°41.925 300.4 14.6 295 15.3
2005-09-21 07:37:45 51°20.434 2°41.892 300.4 14.7 295 17.2
2005-09-21 07:37:51 51°20.444 2°41.86 300.1 14.6 294 19.3
2005-09-21 07:37:56 51°20.452 2°41.83 300.4 14.6 295 18.8
2005-09-21 07:38:00 51°20.459 2°41.806 300.4 14.7 294 18.9
2005-09-21 07:38:05 51°20.468 2°41.775 300.5 14.6 295 20
2005-09-21 07:38:11 51°20.477 2°41.741 300.4 14.7 294 19.8
2005-09-21 07:38:16 51°20.486 2°41.712 300.1 14.6 295 20
2005-09-21 07:38:20 51°20.493 2°41.688 300.6 14.7 294 19.2
2005-09-21 07:38:25 51°20.502 2°41.656 300.4 14.7 294 19.3
2005-09-21 07:38:29 51°20.508 2°41.633 300.3 14.5 294 19
2005-09-21 07:38:36 51°20.519 2°41.594 300.2 14.6 294 19.4
2005-09-21 07:38:40 51°20.526 2°41.571 300.1 14.6 294 19.3
2005-09-21 07:38:45 51°20.535 2°41.538 300.3 14.6 294 18.9
2005-09-21 07:38:49 51°20.542 2°41.515 300.1 14.6 294 19.6
2005-09-21 07:38:56 51°20.553 2°41.477 300.3 14.6 295 20.2
2005-09-21 07:39:00 51°20.56 2°41.451 300.4 14.6 295 21.4
2005-09-21 07:39:05 51°20.569 2°41.421 300.4 14.6 295 22.1
2005-09-21 07:39:11 51°20.578 2°41.389 300.6 14.6 295 23
2005-09-21 07:39:16 51°20.586 2°41.36 300.6 14.6 295 22.5
2005-09-21 07:39:20 51°20.594 2°41.334 300.2 14.5 295 23.3
2005-09-21 07:39:25 51°20.603 2°41.304 300.4 14.5 295 24.4
2005-09-21 07:39:30 51°20.61 2°41.278 300.3 14.5 295 25.4
2005-09-21 07:39:35 51°20.62 2°41.246 300.5 14.5 295 26.2
2005-09-21 07:39:40 51°20.627 2°41.22 300.5 14.5 295 26.5
2005-09-21 07:39:45 51°20.637 2°41.188 300.4 14.5 295 26.3
2005-09-21 07:39:49 51°20.643 2°41.164 300.2 14.5 295 26.4
2005-09-21 07:39:55 51°20.653 2°41.13 300.2 14.5 295 26
2005-09-21 07:40:00 51°20.66 2°41.103 300.4 14.4 294 25.6
2005-09-21 07:40:06 51°20.67 2°41.067 300.1 14.4 294 25.2
2005-09-21 07:40:11 51°20.675 2°41.037 298 14.5 289 25
2005-09-21 07:40:15 51°20.68 2°41.01 295.3 14.5 289 25.1
2005-09-21 07:40:20 51°20.685 2°40.979 293.1 14.4 284 25
2005-09-21 07:40:26 51°20.69 2°40.944 291.6 14.4 284 24.9
2005-09-21 07:40:31 51°20.693 2°40.913 288.9 14.4 280 24.7
2005-09-21 07:40:36 51°20.695 2°40.881 285.9 14.4 278 25.1
2005-09-21 07:40:41 51°20.697 2°40.85 283.7 14.4 278 25.1
2005-09-21 07:40:45 51°20.699 2°40.821 281.9 14.4 275 25.2
2005-09-21 07:40:51 51°20.701 2°40.786 280.9 14.4 275 25.4
2005-09-21 07:40:56 51°20.702 2°40.754 280.4 14.5 275 25.2
2005-09-21 07:41:00 51°20.703 2°40.729 279.7 14.4 274 24.8
2005-09-21 07:41:05 51°20.704 2°40.694 279.2 14.4 273 24.7
2005-09-21 07:41:09 51°20.705 2°40.668 278.4 14.4 272 25
2005-09-21 07:41:15 51°20.706 2°40.629 277.7 14.5 272 25.4
2005-09-21 07:41:20 51°20.706 2°40.6 277.3 14.5 273 25.6
2005-09-21 07:41:25 51°20.707 2°40.565 278.1 14.5 273 25.8
2005-09-21 07:41:29 51°20.707 2°40.54 278.3 14.3 270 25.8
2005-09-21 07:41:36 51°20.704 2°40.499 275.4 14.3 265 25.9
2005-09-21 07:41:40 51°20.702 2°40.474 268.4 14.3 262 26.2
2005-09-21 07:41:45 51°20.697 2°40.44 265.3 14.3 262 26.5
2005-09-21 07:41:50 51°20.694 2°40.408 263.4 14.3 259 26.3
2005-09-21 07:41:56 51°20.689 2°40.374 262.2 14.4 258 26.3
2005-09-21 07:42:01 51°20.684 2°40.343 261.1 14.4 258 25.4
2005-09-21 07:42:06 51°20.679 2°40.312 260.4 14.4 256 24.9
2005-09-21 07:42:09 51°20.676 2°40.29 259.8 14.5 256 25.3
2005-09-21 07:42:16 51°20.669 2°40.25 259.3 14.5 256 25.7
2005-09-21 07:42:20 51°20.665 2°40.221 259.1 14.5 256 25.7
2005-09-21 07:42:25 51°20.66 2°40.191 259.1 14.5 256 25.9
2005-09-21 07:42:31 51°20.655 2°40.156 259.1 14.5 256 25.8
2005-09-21 07:42:36 51°20.649 2°40.125 259.1 14.5 256 25.9
2005-09-21 07:42:40 51°20.645 2°40.097 259.3 14.5 256 25.6
2005-09-21 07:42:45 51°20.64 2°40.066 259.4 14.6 256 25.5
2005-09-21 07:42:51 51°20.635 2°40.031 259.5 14.5 256 25.9
2005-09-21 07:42:56 51°20.63 2°40 259.8 14.5 256 25.6
2005-09-21 07:43:00 51°20.626 2°39.975 259.8 14.5 256 25.4
2005-09-21 07:43:05 51°20.621 2°39.941 259.8 14.5 256 25.2
2005-09-21 07:43:11 51°20.616 2°39.906 259.9 14.5 256 24.6
2005-09-21 07:43:15 51°20.611 2°39.878 259.8 14.5 256 24
2005-09-21 07:43:20 51°20.607 2°39.85 260.1 14.5 256 24.7
2005-09-21 07:43:25 51°20.603 2°39.815 261.3 14.5 258 25.2
2005-09-21 07:43:31 51°20.598 2°39.78 261.8 14.5 258 25.2
2005-09-21 07:43:36 51°20.595 2°39.749 262.5 14.5 258 25.2
2005-09-21 07:43:40 51°20.591 2°39.72 263 14.6 259 25
2005-09-21 07:43:45 51°20.588 2°39.689 263.4 14.5 259 25
2005-09-21 07:43:51 51°20.584 2°39.654 263.7 14.5 259 24.7
2005-09-21 07:43:56 51°20.581 2°39.622 264.1 14.6 261 24.6
2005-09-21 07:44:00 51°20.579 2°39.596 264.9 14.6 261 24.5
2005-09-21 07:44:06 51°20.575 2°39.557 265.6 14.6 261 24.4
2005-09-21 07:44:09 51°20.573 2°39.536 265.7 14.6 262 24.2
2005-09-21 07:44:16 51°20.569 2°39.494 265.6 14.6 261 24.1
2005-09-21 07:44:20 51°20.567 2°39.465 266.3 14.6 261 24
2005-09-21 07:44:25 51°20.565 2°39.433 267.1 14.5 263 23.7
2005-09-21 07:44:29 51°20.563 2°39.408 267.9 14.5 264 23.3
2005-09-21 07:44:36 51°20.561 2°39.366 268.5 14.5 264 22.8
2005-09-21 07:44:40 51°20.559 2°39.337 268.9 14.5 265 22.8
2005-09-21 07:44:45 51°20.556 2°39.305 268.9 14.5 264 22.9
2005-09-21 07:44:51 51°20.554 2°39.27 268.4 14.5 264 22.8
2005-09-21 07:44:55 51°20.553 2°39.242 268.4 14.5 265 23.3
2005-09-21 07:45:00 51°20.552 2°39.213 269.3 14.5 266 23.6
2005-09-21 07:45:05 51°20.551 2°39.178 270.5 14.4 267 23.5
2005-09-21 07:45:09 51°20.55 2°39.152 271.4 14.4 267 23.4
2005-09-21 07:45:16 51°20.549 2°39.11 271.1 14.4 267 23.3
2005-09-21 07:45:20 51°20.548 2°39.085 270.6 14.5 267 23.1
2005-09-21 07:45:25 51°20.547 2°39.05 270.1 14.5 266 23.6
2005-09-21 07:45:29 51°20.546 2°39.024 270.8 14.5 266 23.9
2005-09-21 07:45:36 51°20.546 2°38.982 272.4 14.6 269 23.8
2005-09-21 07:45:40 51°20.547 2°38.956 273.8 14.5 271 23.9
2005-09-21 07:45:45 51°20.548 2°38.921 274.8 14.5 271 23.7
2005-09-21 07:45:49 51°20.549 2°38.895 276.5 14.5 271 23.8
2005-09-21 07:45:55 51°20.55 2°38.857 278.1 14.5 274 23.6
2005-09-21 07:46:00 51°20.552 2°38.828 279.4 14.5 275 23.6
2005-09-21 07:46:06 51°20.553 2°38.789 279.9 14.5 274 23.2
2005-09-21 07:46:09 51°20.554 2°38.767 279.9 14.5 274 22
2005-09-21 07:46:15 51°20.557 2°38.728 279.2 14.7 274 23
2005-09-21 07:46:20 51°20.559 2°38.699 281.6 14.6 278 23.1
2005-09-21 07:46:26 51°20.562 2°38.66 282.3 14.6 277 23.2
2005-09-21 07:46:29 51°20.564 2°38.638 282.3 14.6 277 22.9
2005-09-21 07:46:35 51°20.566 2°38.6 282.3 14.6 277 22.8
2005-09-21 07:46:40 51°20.569 2°38.571 281.6 14.6 276 22.7
2005-09-21 07:46:46 51°20.571 2°38.532 281.2 14.6 276 22.7
2005-09-21 07:46:49 51°20.572 2°38.509 280.9 14.6 276 22.7
2005-09-21 07:46:55 51°20.575 2°38.471 280.8 14.6 276 22.4
2005-09-21 07:47:00 51°20.577 2°38.442 280.8 14.6 276 22.8
2005-09-21 07:47:05 51°20.58 2°38.407 281.1 14.6 276 22
2005-09-21 07:47:09 51°20.582 2°38.381 282.9 14.6 276 22.5
2005-09-21 07:47:15 51°20.586 2°38.343 283.8 14.6 279 22.3
2005-09-21 07:47:20 51°20.589 2°38.314 285.2 14.6 280 22.1
2005-09-21 07:47:25 51°20.593 2°38.279 285.3 14.6 279 22.4
2005-09-21 07:47:29 51°20.596 2°38.254 286 14.6 281 21.9
2005-09-21 07:47:36 51°20.601 2°38.212 286.3 14.6 280 22.7
2005-09-21 07:47:40 51°20.604 2°38.187 286.3 14.7 280 22.5
2005-09-21 07:47:45 51°20.607 2°38.152 286.1 14.7 280 22.7
2005-09-21 07:47:49 51°20.61 2°38.126 285.9 14.7 280 21.7
2005-09-21 07:47:56 51°20.615 2°38.085 285.9 14.6 280 21.7
2005-09-21 07:48:00 51°20.618 2°38.059 285.9 14.7 280 21.3
2005-09-21 07:48:05 51°20.622 2°38.024 286 14.6 280 22.3
2005-09-21 07:48:09 51°20.625 2°37.999 286.2 14.7 280 22.5
2005-09-21 07:48:15 51°20.629 2°37.96 286 14.7 280 21.6
2005-09-21 07:48:20 51°20.632 2°37.931 285.9 14.7 280 21.8
2005-09-21 07:48:25 51°20.636 2°37.896 285.8 14.7 280 22.6
2005-09-21 07:48:29 51°20.639 2°37.871 285.8 14.7 280 22.6
2005-09-21 07:48:36 51°20.644 2°37.829 285.8 14.7 281 22.5
2005-09-21 07:48:40 51°20.647 2°37.804 286 14.7 281 22.5
2005-09-21 07:48:45 51°20.651 2°37.768 286.1 14.7 281 22.6
2005-09-21 07:48:51 51°20.655 2°37.733 285.9 14.7 281 22
2005-09-21 07:48:55 51°20.659 2°37.704 285.9 14.7 280 21.7
2005-09-21 07:49:00 51°20.662 2°37.672 285.9 14.7 280 22.6
2005-09-21 07:49:05 51°20.666 2°37.64 285.9 14.7 280 22.2
2005-09-21 07:49:11 51°20.669 2°37.605 285.8 14.7 280 22
2005-09-21 07:49:16 51°20.673 2°37.573 285.4 14.7 280 22.1
2005-09-21 07:49:20 51°20.676 2°37.547 285.3 14.7 280 21.4
2005-09-21 07:49:25 51°20.679 2°37.512 285.3 14.7 279 22.5
2005-09-21 07:49:29 51°20.682 2°37.486 285.3 14.7 280 21.6
2005-09-21 07:49:36 51°20.686 2°37.444 285.3 14.7 280 21.9
2005-09-21 07:49:40 51°20.69 2°37.415 285.2 14.8 280 21.8
2005-09-21 07:49:45 51°20.693 2°37.383 285.2 14.7 280 22.5
2005-09-21 07:49:49 51°20.696 2°37.358 285.5 14.7 280 22.3
2005-09-21 07:49:56 51°20.7 2°37.316 285.9 14.7 280 21.8
2005-09-21 07:50:01 51°20.704 2°37.284 286 14.7 280 22.2
2005-09-21 07:50:05 51°20.707 2°37.255 285.9 14.7 280 21.7
2005-09-21 07:50:11 51°20.71 2°37.22 285.7 14.7 280 21
2005-09-21 07:50:16 51°20.714 2°37.188 285.4 14.7 280 22.5
2005-09-21 07:50:20 51°20.717 2°37.159 285.6 14.7 280 22.3
2005-09-21 07:50:25 51°20.721 2°37.127 285.8 14.7 280 22.4
2005-09-21 07:50:30 51°20.724 2°37.095 286.2 14.7 281 21.2
2005-09-21 07:50:35 51°20.728 2°37.063 286 14.7 280 21.2
2005-09-21 07:50:40 51°20.732 2°37.034 285.9 14.7 280 21.4
2005-09-21 07:50:46 51°20.736 2°36.995 285.8 14.7 279 21.3
2005-09-21 07:50:49 51°20.738 2°36.973 285.4 14.7 280 21.2
2005-09-21 07:50:56 51°20.742 2°36.931 285.5 14.7 280 20.7
2005-09-21 07:51:00 51°20.745 2°36.906 285.6 14.7 280 20.7
2005-09-21 07:51:06 51°20.749 2°36.867 285.8 14.8 280 20.9
2005-09-21 07:51:09 51°20.752 2°36.844 285.8 14.8 280 20.8
2005-09-21 07:51:16 51°20.756 2°36.802 285.8 14.8 279 19.5
2005-09-21 07:51:20 51°20.759 2°36.776 285.5 14.7 279 20.7
2005-09-21 07:51:25 51°20.763 2°36.741 285.2 14.8 280 20.8
2005-09-21 07:51:29 51°20.766 2°36.715 285.3 14.8 280 20.3
2005-09-21 07:51:36 51°20.77 2°36.673 285.3 14.8 280 20.7
2005-09-21 07:51:40 51°20.773 2°36.644 285.4 14.8 280 20.8
2005-09-21 07:51:45 51°20.777 2°36.612 285.6 14.8 280 20.3
2005-09-21 07:51:50 51°20.78 2°36.583 285.8 14.8 280 20.8
2005-09-21 07:51:56 51°20.784 2°36.544 286 14.7 280 19.9
2005-09-21 07:52:00 51°20.787 2°36.515 286.1 14.7 280 20.7
2005-09-21 07:52:05 51°20.791 2°36.483 285.9 14.8 280 21.1
2005-09-21 07:52:11 51°20.795 2°36.448 285.8 14.8 280 20.6
2005-09-21 07:52:16 51°20.798 2°36.415 285.6 14.8 279 20.9
2005-09-21 07:52:20 51°20.801 2°36.386 285.5 14.8 279 21.5
2005-09-21 07:52:25 51°20.805 2°36.354 285.4 14.8 279 20.6
2005-09-21 07:52:31 51°20.808 2°36.318 285.4 14.8 279 21.3
2005-09-21 07:52:36 51°20.812 2°36.285 285.4 14.9 280 20.1
2005-09-21 07:52:40 51°20.815 2°36.256 285.5 14.9 280 22
2005-09-21 07:52:45 51°20.818 2°36.224 285.5 14.9 279 22.5
2005-09-21 07:52:51 51°20.822 2°36.188 285.3 14.9 279 21.9
2005-09-21 07:52:55 51°20.825 2°36.159 285.2 14.9 279 21
2005-09-21 07:53:00 51°20.828 2°36.129 285.2 14.9 279 22.8
2005-09-21 07:53:05 51°20.832 2°36.094 285.3 14.9 279 24.1
2005-09-21 07:53:11 51°20.835 2°36.058 285.5 14.9 280 24.5
2005-09-21 07:53:16 51°20.838 2°36.026 285.6 14.9 279 24.3
2005-09-21 07:53:21 51°20.842 2°35.993 285.6 14.9 279 21.5
2005-09-21 07:53:25 51°20.844 2°35.964 285.6 14.9 279 24.3
2005-09-21 07:53:29 51°20.847 2°35.938 284.8 14.9 278 25.5
2005-09-21 07:53:36 51°20.85 2°35.895 283.7 14.8 277 25.6
2005-09-21 07:53:40 51°20.852 2°35.866 283 14.8 277 26
2005-09-21 07:53:45 51°20.854 2°35.833 282.5 14.8 276 24.6
2005-09-21 07:53:51 51°20.856 2°35.797 282.3 14.8 276 21
2005-09-21 07:53:55 51°20.858 2°35.767 281.8 14.8 276 22.8
2005-09-21 07:54:00 51°20.859 2°35.738 281.6 14.8 276 25
2005-09-21 07:54:05 51°20.862 2°35.702 281.5 14.9 275 25.2
2005-09-21 07:54:11 51°20.865 2°35.666 281.9 14.9 275 26.6
2005-09-21 07:54:16 51°20.867 2°35.633 282.5 14.9 275 27.9
2005-09-21 07:54:20 51°20.87 2°35.603 282.8 14.9 277 27.4
2005-09-21 07:54:25 51°20.872 2°35.571 283 14.9 276 24.8
2005-09-21 07:54:30 51°20.874 2°35.541 282.6 14.9 276 25.3
2005-09-21 07:54:36 51°20.877 2°35.502 282.1 14.9 276 27.8
2005-09-21 07:54:40 51°20.879 2°35.475 282 14.9 276 27.9
2005-09-21 07:54:46 51°20.882 2°35.436 282.2 15 277 28.7
2005-09-21 07:54:50 51°20.884 2°35.406 282.9 14.9 277 29.3
2005-09-21 07:54:56 51°20.887 2°35.37 282.9 14.9 277 29.9
2005-09-21 07:55:01 51°20.889 2°35.337 282.8 14.9 277 30.2
2005-09-21 07:55:05 51°20.892 2°35.308 282.3 14.9 276 26.3
2005-09-21 07:55:10 51°20.894 2°35.278 282.2 14.9 276 27.3
2005-09-21 07:55:16 51°20.897 2°35.239 282.1 14.9 276 30
2005-09-21 07:55:20 51°20.899 2°35.213 282.3 14.9 278 28.8
2005-09-21 07:55:25 51°20.904 2°35.178 283.3 14.8 280 29.9
2005-09-21 07:55:31 51°20.911 2°35.144 288.1 14.8 280 30.6
2005-09-21 07:55:36 51°20.918 2°35.114 292.8 14.8 280 29.3
2005-09-21 07:55:40 51°20.924 2°35.09 297.5 14.5 292 30.1
2005-09-21 07:55:45 51°20.934 2°35.059 299.7 14.4 294 30
2005-09-21 07:55:49 51°20.942 2°35.037 303.5 14.4 298 30
2005-09-21 07:55:56 51°20.955 2°35.001 307 14.4 300 30.5
2005-09-21 07:56:00 51°20.963 2°34.98 309.3 14.3 302 30.3
2005-09-21 07:56:05 51°20.976 2°34.951 311.3 14.3 303 30.6
2005-09-21 07:56:10 51°20.986 2°34.928 312.8 14.3 305 30.4
2005-09-21 07:56:16 51°21.001 2°34.9 315.9 14.2 309 30.1
2005-09-21 07:56:20 51°21.013 2°34.878 318.2 14.2 309 30.3
2005-09-21 07:56:25 51°21.026 2°34.855 320.5 14.2 309 30
2005-09-21 07:56:31 51°21.041 2°34.83 322.2 14.1 313 30.1
2005-09-21 07:56:36 51°21.054 2°34.808 323 14.1 313 30.1
2005-09-21 07:56:41 51°21.068 2°34.785 323.7 14.1 314 30.5
2005-09-21 07:56:45 51°21.08 2°34.766 324.4 14.1 314 30.8
2005-09-21 07:56:50 51°21.093 2°34.745 324.8 14.1 314 30.5
2005-09-21 07:56:56 51°21.109 2°34.718 324.9 14.1 314 30.2
2005-09-21 07:57:01 51°21.123 2°34.696 324.8 14.1 314 29.9
2005-09-21 07:57:05 51°21.135 2°34.675 324.4 14.2 314 29.8
2005-09-21 07:57:10 51°21.149 2°34.653 324.2 14.2 314 29.8
2005-09-21 07:57:16 51°21.164 2°34.628 324.5 14.2 314 29.5
2005-09-21 07:57:20 51°21.176 2°34.608 324.5 14.1 314 29.4
2005-09-21 07:57:25 51°21.19 2°34.586 324.6 14.1 314 29.5
2005-09-21 07:57:30 51°21.202 2°34.566 324.8 14.1 314 29.6
2005-09-21 07:57:35 51°21.217 2°34.541 324.8 14.2 314 29.6
2005-09-21 07:57:40 51°21.23 2°34.521 324.9 14.2 314 30.1
2005-09-21 07:57:45 51°21.245 2°34.496 324.8 14.2 314 30.1
2005-09-21 07:57:51 51°21.26 2°34.471 324.8 14.2 314 29.9
2005-09-21 07:57:56 51°21.274 2°34.449 324.6 14.2 314 29.8
2005-09-21 07:58:01 51°21.288 2°34.427 324.4 14.2 314 29.8
2005-09-21 07:58:05 51°21.3 2°34.407 324.4 14.2 314 29.3
2005-09-21 07:58:10 51°21.314 2°34.388 325.1 14.1 317 28.8
2005-09-21 07:58:16 51°21.331 2°34.363 327.3 14.1 317 28.7
2005-09-21 07:58:20 51°21.345 2°34.345 328.3 14.1 320 28.8
2005-09-21 07:58:25 51°21.36 2°34.325 329.7 14.1 320 28.2
2005-09-21 07:58:31 51°21.376 2°34.304 330.4 14.1 320 28.5
2005-09-21 07:58:36 51°21.392 2°34.284 331.2 14.1 320 28.7
2005-09-21 07:58:40 51°21.404 2°34.269 331.6 14.1 321 29.1
2005-09-21 07:58:45 51°21.421 2°34.248 331.9 14.1 322 29.1
2005-09-21 07:58:49 51°21.434 2°34.233 332 14.1 322 29.6
2005-09-21 07:58:56 51°21.454 2°34.208 331.9 14.1 322 29.9
2005-09-21 07:59:00 51°21.467 2°34.195 333 14 326 30.5
2005-09-21 07:59:05 51°21.485 2°34.176 336.1 14 326 30.2
2005-09-21 07:59:10 51°21.502 2°34.161 337.6 13.9 327 29.9
2005-09-21 07:59:16 51°21.52 2°34.144 339.3 13.9 327 29.9
2005-09-21 07:59:21 51°21.537 2°34.129 340.2 13.9 327 29.6
2005-09-21 07:59:25 51°21.552 2°34.116 341 13.9 327 29.9
2005-09-21 07:59:30 51°21.568 2°34.103 341.9 13.9 332 29.2
2005-09-21 07:59:36 51°21.588 2°34.086 342.5 13.8 333 29.3
2005-09-21 07:59:41 51°21.605 2°34.074 343.1 13.8 333 28.9
2005-09-21 07:59:45 51°21.621 2°34.063 345.4 13.6 337 27.3
2005-09-21 07:59:50 51°21.637 2°34.053 347.1 13.6 337 28.3
2005-09-21 07:59:55 51°21.656 2°34.041 348.6 13.6 337 29
2005-09-21 08:00:00 51°21.674 2°34.031 350.1 13.5 340 29.3
2005-09-21 08:00:05 51°21.692 2°34.022 351.2 13.5 340 28.9
2005-09-21 08:00:10 51°21.708 2°34.013 351.6 13.5 341 28.2
2005-09-21 08:00:16 51°21.729 2°34.002 352 13.5 341 28.2
2005-09-21 08:00:20 51°21.743 2°33.994 352.2 13.5 341 28.4
2005-09-21 08:00:25 51°21.763 2°33.984 352.1 13.5 341 28.2
2005-09-21 08:00:30 51°21.78 2°33.974 352 13.5 341 28.2
2005-09-21 08:00:36 51°21.8 2°33.963 351.8 13.5 341 27.9
2005-09-21 08:00:40 51°21.814 2°33.954 351.3 13.5 341 27.4
2005-09-21 08:00:45 51°21.833 2°33.943 351 13.6 340 27.1
2005-09-21 08:00:51 51°21.852 2°33.932 350.8 13.6 340 26.7
2005-09-21 08:00:56 51°21.87 2°33.922 350.7 13.6 340 26.3
2005-09-21 08:01:00 51°21.885 2°33.914 351 13.6 340 25.8
2005-09-21 08:01:05 51°21.904 2°33.903 351.2 13.6 341 25.5
2005-09-21 08:01:10 51°21.921 2°33.894 351.7 13.6 341 25.1
2005-09-21 08:01:16 51°21.942 2°33.883 351.9 13.7 341 23.5
2005-09-21 08:01:20 51°21.956 2°33.875 351.7 13.6 341 23.4
2005-09-21 08:01:25 51°21.976 2°33.864 351.4 13.6 341 23.5
2005-09-21 08:01:31 51°21.996 2°33.853 351.4 13.6 341 23.7
2005-09-21 08:01:36 51°22.013 2°33.843 351.6 13.5 340 23.8